createdAt,value
2023-03-16T00:01:46.274Z,0.29
2023-03-16T00:04:13.167Z,0.26
2023-03-16T00:06:39.539Z,0.53
2023-03-16T00:09:06.000Z,0.60
2023-03-16T00:11:32.410Z,0.68
2023-03-16T00:13:58.861Z,0.79
2023-03-16T00:16:25.510Z,0.98
2023-03-16T00:18:54.579Z,0.98
2023-03-16T00:21:21.164Z,0.96
2023-03-16T00:23:49.925Z,0.91
2023-03-16T00:26:16.634Z,0.89
2023-03-16T00:28:43.139Z,0.72
2023-03-16T00:31:14.436Z,0.78
2023-03-16T00:33:44.939Z,1.12
2023-03-16T00:36:12.305Z,0.97
2023-03-16T00:38:45.233Z,0.86
2023-03-16T00:41:14.469Z,0.82
2023-03-16T00:43:44.471Z,0.79
2023-03-16T00:46:16.407Z,0.76
2023-03-16T00:48:44.813Z,0.66
2023-03-16T00:51:14.789Z,0.47
2023-03-16T00:53:43.546Z,0.43
2023-03-16T00:56:13.746Z,0.60
2023-03-16T00:58:43.045Z,0.41
2023-03-16T01:01:13.741Z,0.41
2023-03-16T01:03:43.081Z,0.37
2023-03-16T01:06:16.995Z,0.28
2023-03-16T01:08:44.096Z,0.32
2023-03-16T01:11:16.408Z,0.30
2023-03-16T01:13:43.612Z,0.39
2023-03-16T01:16:16.721Z,0.52
2023-03-16T01:18:43.146Z,0.57
2023-03-16T01:21:13.825Z,0.71
2023-03-16T01:23:44.176Z,0.81
2023-03-16T01:26:11.645Z,0.58
2023-03-16T01:28:39.095Z,0.60
2023-03-16T01:31:09.337Z,0.40
2023-03-16T01:33:36.303Z,0.50
2023-03-16T01:36:09.017Z,0.46
2023-03-16T01:38:38.004Z,0.67
2023-03-16T01:41:05.064Z,0.66
2023-03-16T01:43:37.441Z,0.91
2023-03-16T01:46:09.360Z,0.89
2023-03-16T01:48:42.570Z,1.21
2023-03-16T01:51:43.789Z,1.07
2023-03-16T01:54:25.468Z,1.08
2023-03-16T01:56:58.106Z,1.04
2023-03-16T01:59:32.086Z,1.15
2023-03-16T02:01:59.121Z,1.21
2023-03-16T02:04:46.976Z,1.25
2023-03-16T02:07:17.172Z,1.53
2023-03-16T02:09:46.528Z,1.46
2023-03-16T02:12:18.493Z,1.55
2023-03-16T02:14:46.853Z,1.66
2023-03-16T02:17:20.109Z,1.59
2023-03-16T02:19:55.704Z,1.94
2023-03-16T02:22:25.051Z,2.07
2023-03-16T02:24:53.020Z,1.84
2023-03-16T02:27:35.142Z,1.78
2023-03-16T02:30:13.282Z,1.38
2023-03-16T02:32:44.143Z,1.32
2023-03-16T02:35:11.092Z,1.45
2023-03-16T02:37:37.598Z,1.22
2023-03-16T02:40:20.811Z,1.33
2023-03-16T02:42:54.604Z,1.27
2023-03-16T02:45:26.518Z,1.46
2023-03-16T02:47:58.443Z,1.42
2023-03-16T02:50:27.854Z,1.50
2023-03-16T02:52:54.351Z,1.67
2023-03-16T02:55:21.645Z,1.53
2023-03-16T02:57:49.020Z,1.39
2023-03-16T03:00:18.323Z,1.39
2023-03-16T03:02:45.860Z,1.48
2023-03-16T03:05:12.707Z,1.49
2023-03-16T03:07:39.255Z,1.48
2023-03-16T03:10:09.308Z,1.45
2023-03-16T03:12:35.802Z,1.35
2023-03-16T03:15:04.555Z,1.36
2023-03-16T03:17:31.190Z,1.31
2023-03-16T03:20:00.143Z,1.42
2023-03-16T03:22:28.252Z,2.03
2023-03-16T03:24:54.805Z,2.16
2023-03-16T03:27:22.459Z,1.56
2023-03-16T03:29:49.012Z,1.81
2023-03-16T03:32:15.494Z,1.84
2023-03-16T03:34:42.603Z,1.72
2023-03-16T03:37:09.011Z,1.98
2023-03-16T03:39:40.349Z,1.85
2023-03-16T03:42:07.212Z,2.04
2023-03-16T03:44:36.986Z,2.01
2023-03-16T03:47:04.190Z,1.85
2023-03-16T03:49:30.796Z,1.95
2023-03-16T03:51:59.148Z,2.14
2023-03-16T03:54:25.999Z,2.41
2023-03-16T03:56:55.483Z,2.22
2023-03-16T03:59:24.182Z,2.27
2023-03-16T04:01:53.757Z,2.22
2023-03-16T04:04:20.916Z,2.21
2023-03-16T04:06:51.227Z,2.08
2023-03-16T04:09:17.929Z,2.15
2023-03-16T04:11:49.561Z,2.31
2023-03-16T04:14:16.055Z,2.21
2023-03-16T04:16:44.280Z,2.26
2023-03-16T04:19:11.598Z,2.35
2023-03-16T04:21:38.242Z,2.23
2023-03-16T04:24:05.326Z,2.14
2023-03-16T04:26:32.685Z,2.15
2023-03-16T04:28:59.183Z,2.19
2023-03-16T04:31:25.691Z,1.98
2023-03-16T04:33:54.843Z,1.90
2023-03-16T04:36:24.211Z,1.93
2023-03-16T04:38:51.495Z,1.96
2023-03-16T04:41:18.505Z,1.87
2023-03-16T04:43:47.512Z,1.85
2023-03-16T04:46:13.916Z,2.12
2023-03-16T04:48:40.957Z,1.81
2023-03-16T04:51:07.427Z,2.09
2023-03-16T04:53:33.885Z,2.00
2023-03-16T04:56:00.956Z,1.95
2023-03-16T04:58:27.833Z,1.79
2023-03-16T05:00:57.828Z,1.86
2023-03-16T05:03:24.495Z,1.84
2023-03-16T05:05:51.340Z,1.93
2023-03-16T05:08:17.803Z,1.92
2023-03-16T05:10:48.493Z,1.84
2023-03-16T05:13:14.893Z,1.96
2023-03-16T05:15:41.507Z,2.18
2023-03-16T05:18:08.060Z,1.95
2023-03-16T05:20:34.870Z,1.92
2023-03-16T05:23:03.548Z,1.91
2023-03-16T05:25:30.460Z,1.67
2023-03-16T05:27:57.354Z,1.77
2023-03-16T05:30:23.789Z,1.86
2023-03-16T05:32:51.234Z,1.78
2023-03-16T05:35:23.052Z,1.92
2023-03-16T05:37:50.808Z,1.92
2023-03-16T05:40:17.588Z,1.94
2023-03-16T05:42:51.515Z,1.98
2023-03-16T05:45:20.718Z,1.85
2023-03-16T05:47:47.333Z,1.96
2023-03-16T05:50:16.820Z,1.98
2023-03-16T05:52:44.710Z,2.07
2023-03-16T05:55:14.601Z,1.97
2023-03-16T05:57:41.875Z,2.08
2023-03-16T06:00:15.565Z,1.99
2023-03-16T06:02:48.211Z,1.96
2023-03-16T06:05:16.536Z,2.03
2023-03-16T06:07:44.417Z,1.95
2023-03-16T06:10:12.367Z,1.98
2023-03-16T06:12:39.349Z,2.14
2023-03-16T06:15:09.458Z,2.17
2023-03-16T06:17:37.023Z,2.21
2023-03-16T06:20:11.331Z,2.32
2023-03-16T06:22:43.037Z,2.54
2023-03-16T06:25:12.106Z,2.45
2023-03-16T06:27:39.733Z,2.43
2023-03-16T06:30:08.641Z,2.49
2023-03-16T06:32:38.100Z,2.70
2023-03-16T06:35:06.213Z,2.80
2023-03-16T06:37:32.867Z,2.76
2023-03-16T06:39:59.391Z,2.77
2023-03-16T06:42:25.795Z,2.76
2023-03-16T06:44:52.797Z,2.97
2023-03-16T06:47:19.976Z,2.91
2023-03-16T06:49:51.106Z,3.03
2023-03-16T06:52:20.971Z,3.10
2023-03-16T06:54:52.242Z,3.09
2023-03-16T06:57:18.744Z,3.10
2023-03-16T06:59:45.335Z,3.36
2023-03-16T07:02:13.811Z,3.48
2023-03-16T07:04:42.336Z,3.55
2023-03-16T07:07:09.576Z,3.80
2023-03-16T07:09:39.136Z,3.95
2023-03-16T07:12:07.042Z,4.05
2023-03-16T07:14:33.684Z,3.86
2023-03-16T07:17:00.260Z,4.19
2023-03-16T07:19:26.827Z,4.14
2023-03-16T07:21:56.081Z,4.09
2023-03-16T07:24:22.548Z,4.17
2023-03-16T07:26:48.949Z,4.30
2023-03-16T07:29:17.165Z,4.22
2023-03-16T07:31:43.617Z,4.25
2023-03-16T07:34:10.040Z,4.54
2023-03-16T07:36:36.530Z,4.67
2023-03-16T07:39:03.747Z,4.72
2023-03-16T07:41:32.567Z,4.75
2023-03-16T07:43:59.272Z,4.72
2023-03-16T07:46:25.843Z,5.02
2023-03-16T07:48:52.384Z,5.16
2023-03-16T07:51:18.869Z,5.32
2023-03-16T07:53:45.311Z,5.06
2023-03-16T07:56:14.136Z,5.49
2023-03-16T07:58:41.750Z,5.65
2023-03-16T08:01:09.288Z,5.61
2023-03-16T08:03:35.752Z,5.85
2023-03-16T08:06:02.500Z,5.93
2023-03-16T08:08:29.015Z,6.00
2023-03-16T08:10:58.385Z,5.92
2023-03-16T08:13:27.281Z,6.04
2023-03-16T08:15:58.592Z,5.85
2023-03-16T08:18:26.520Z,6.05
2023-03-16T08:20:53.498Z,6.09
2023-03-16T08:23:19.990Z,6.13
2023-03-16T08:25:46.534Z,6.49
2023-03-16T08:28:13.108Z,6.18
2023-03-16T08:30:50.997Z,6.50
2023-03-16T08:33:18.277Z,6.44
2023-03-16T08:35:48.541Z,6.09
2023-03-16T08:38:15.979Z,6.09
2023-03-16T08:40:48.391Z,6.23
2023-03-16T08:43:15.727Z,6.33
2023-03-16T08:45:45.345Z,6.30
2023-03-16T08:48:14.856Z,6.67
2023-03-16T08:50:44.634Z,6.82
2023-03-16T08:53:13.506Z,6.91
2023-03-16T08:55:41.651Z,6.96
2023-03-16T08:58:09.141Z,6.51
2023-03-16T09:00:36.417Z,6.47
2023-03-16T09:03:03.125Z,6.42
2023-03-16T09:05:33.550Z,6.84
2023-03-16T09:08:01.540Z,7.11
2023-03-16T09:10:28.954Z,7.71
2023-03-16T09:13:02.786Z,7.83
2023-03-16T09:15:29.837Z,7.76
2023-03-16T09:17:58.039Z,7.64
2023-03-16T09:20:29.996Z,7.56
2023-03-16T09:22:57.676Z,7.37
2023-03-16T09:25:26.074Z,7.53
2023-03-16T09:27:52.836Z,7.70
2023-03-16T09:30:21.878Z,8.11
2023-03-16T09:32:50.895Z,8.01
2023-03-16T09:35:17.660Z,8.20
2023-03-16T09:38:01.070Z,8.34
2023-03-16T09:40:31.752Z,8.59
2023-03-16T09:43:17.521Z,8.44
2023-03-16T09:45:57.497Z,8.30
2023-03-16T09:48:29.723Z,8.72
2023-03-16T09:50:56.880Z,8.52
2023-03-16T09:53:39.074Z,8.52
2023-03-16T09:56:20.110Z,8.33
2023-03-16T09:58:46.683Z,8.14
2023-03-16T10:01:32.116Z,7.92
2023-03-16T10:04:17.053Z,8.18
2023-03-16T10:07:15.491Z,8.46
2023-03-16T10:09:54.516Z,8.51
2023-03-16T10:12:23.257Z,8.75
2023-03-16T10:14:57.648Z,8.91
2023-03-16T10:17:33.256Z,8.77
2023-03-16T10:20:02.941Z,8.78
2023-03-16T10:22:34.798Z,8.92
2023-03-16T10:25:19.392Z,9.15
2023-03-16T10:27:47.081Z,8.99
2023-03-16T10:30:31.145Z,9.22
2023-03-16T10:33:03.611Z,9.24
2023-03-16T10:35:30.390Z,9.38
2023-03-16T10:38:00.138Z,9.50
2023-03-16T10:40:31.973Z,9.38
2023-03-16T10:43:12.807Z,9.32
2023-03-16T10:45:39.609Z,9.15
2023-03-16T10:48:14.480Z,9.31
2023-03-16T10:50:48.305Z,9.43
2023-03-16T10:53:19.676Z,9.33
2023-03-16T10:55:47.973Z,9.36
2023-03-16T10:58:30.913Z,9.44
2023-03-16T11:00:57.770Z,9.52
2023-03-16T11:03:38.814Z,9.41
2023-03-16T11:06:07.557Z,9.35
2023-03-16T11:08:42.887Z,9.85
2023-03-16T11:11:24.317Z,9.91
2023-03-16T11:13:50.759Z,10.17
2023-03-16T11:16:51.149Z,10.24
2023-03-16T11:19:24.420Z,10.12
2023-03-16T11:22:00.252Z,10.39
2023-03-16T11:24:39.783Z,9.99
2023-03-16T11:27:18.059Z,9.91
2023-03-16T11:30:01.986Z,10.05
2023-03-16T11:32:36.767Z,9.97
2023-03-16T11:35:15.078Z,10.26
2023-03-16T11:38:15.396Z,10.59
2023-03-16T11:40:42.003Z,10.66
2023-03-16T11:44:07.037Z,10.52
2023-03-16T11:46:51.861Z,10.50
2023-03-16T11:49:44.267Z,10.95
2023-03-16T11:52:20.580Z,11.31
2023-03-16T11:54:49.978Z,11.43
2023-03-16T11:57:32.791Z,11.46
2023-03-16T12:00:13.252Z,11.43
2023-03-16T12:03:09.327Z,11.42
2023-03-16T12:05:57.255Z,11.53
2023-03-16T12:08:40.048Z,11.74
2023-03-16T12:11:20.500Z,11.50
2023-03-16T12:14:11.213Z,12.03
2023-03-16T12:17:03.075Z,11.70
2023-03-16T12:19:57.337Z,11.57
2023-03-16T12:22:29.491Z,11.78
2023-03-16T12:24:58.667Z,12.10
2023-03-16T12:27:31.485Z,12.32
2023-03-16T12:30:24.742Z,11.87
2023-03-16T12:33:00.812Z,11.97
2023-03-16T12:35:30.451Z,11.58
2023-03-16T12:38:25.368Z,11.42
2023-03-16T12:41:17.672Z,11.53
2023-03-16T12:43:52.687Z,11.17
2023-03-16T12:46:48.771Z,11.29
2023-03-16T12:49:16.337Z,11.10
2023-03-16T12:51:44.016Z,10.83
2023-03-16T12:54:25.417Z,10.87
2023-03-16T12:56:59.718Z,11.24
2023-03-16T12:59:36.862Z,11.37
2023-03-16T13:02:06.752Z,11.27
2023-03-16T13:04:42.372Z,11.36
2023-03-16T13:07:22.646Z,11.35
2023-03-16T13:10:01.123Z,11.45
2023-03-16T13:12:37.051Z,11.46
2023-03-16T13:15:19.571Z,11.72
2023-03-16T13:17:48.656Z,11.77
2023-03-16T13:20:32.025Z,11.58
2023-03-16T13:23:18.958Z,11.69
2023-03-16T13:26:00.451Z,11.86
2023-03-16T13:28:34.315Z,11.70
2023-03-16T13:31:01.687Z,11.45
2023-03-16T13:33:36.657Z,11.49
2023-03-16T13:36:06.365Z,11.47
2023-03-16T13:38:33.090Z,11.40
2023-03-16T13:41:10.202Z,11.52
2023-03-16T13:43:41.761Z,11.57
2023-03-16T13:46:16.991Z,11.39
2023-03-16T13:48:46.373Z,11.16
2023-03-16T13:51:21.003Z,11.21
2023-03-16T13:53:49.325Z,11.48
2023-03-16T13:56:23.766Z,11.43
2023-03-16T13:58:52.573Z,11.21
2023-03-16T14:01:33.484Z,11.45
2023-03-16T14:04:11.879Z,11.38
2023-03-16T14:06:38.630Z,11.49
2023-03-16T14:09:08.040Z,11.62
2023-03-16T14:11:34.755Z,11.74
2023-03-16T14:14:02.066Z,11.64
2023-03-16T14:16:31.847Z,11.98
2023-03-16T14:19:05.009Z,11.67
2023-03-16T14:21:34.322Z,11.65
2023-03-16T14:24:04.548Z,11.69
2023-03-16T14:26:47.026Z,11.92
2023-03-16T14:29:20.117Z,12.07
2023-03-16T14:31:46.682Z,11.94
2023-03-16T14:34:32.968Z,11.81
2023-03-16T14:37:33.906Z,11.84
2023-03-16T14:40:20.917Z,11.86
2023-03-16T14:42:47.652Z,11.88
2023-03-16T14:45:16.324Z,11.91
2023-03-16T14:47:48.869Z,11.83
2023-03-16T14:50:20.502Z,11.89
2023-03-16T14:52:47.703Z,11.89
2023-03-16T14:55:19.502Z,11.89
2023-03-16T14:57:46.329Z,12.03
2023-03-16T15:00:17.108Z,12.08
2023-03-16T15:02:51.119Z,11.85
2023-03-16T15:05:27.509Z,12.00
2023-03-16T15:07:56.722Z,12.21
2023-03-16T15:10:26.879Z,12.13
2023-03-16T15:13:04.292Z,11.86
2023-03-16T15:15:36.259Z,11.92
2023-03-16T15:18:02.656Z,11.77
2023-03-16T15:20:34.796Z,11.71
2023-03-16T15:23:02.038Z,11.81
2023-03-16T15:25:36.800Z,11.88
2023-03-16T15:28:14.007Z,11.75
2023-03-16T15:30:41.313Z,11.73
2023-03-16T15:33:09.952Z,11.73
2023-03-16T15:35:37.106Z,11.80
2023-03-16T15:38:23.985Z,11.70
2023-03-16T15:40:52.026Z,11.78
2023-03-16T15:43:29.005Z,11.69
2023-03-16T15:45:57.394Z,11.66
2023-03-16T15:48:27.077Z,11.57
2023-03-16T15:50:58.642Z,11.58
2023-03-16T15:53:43.041Z,11.57
2023-03-16T15:56:14.917Z,11.67
2023-03-16T15:58:45.566Z,11.51
2023-03-16T16:01:44.966Z,11.44
2023-03-16T16:04:19.603Z,11.40
2023-03-16T16:06:47.559Z,11.41
2023-03-16T16:09:14.096Z,11.20
2023-03-16T16:11:41.353Z,11.29
2023-03-16T16:14:14.832Z,11.33
2023-03-16T16:16:45.910Z,11.16
2023-03-16T16:19:18.858Z,11.09
2023-03-16T16:21:48.778Z,11.10
2023-03-16T16:24:15.811Z,11.03
2023-03-16T16:26:55.568Z,11.03
2023-03-16T16:29:31.857Z,11.19
2023-03-16T16:31:59.236Z,11.17
2023-03-16T16:34:27.028Z,11.07
2023-03-16T16:36:55.319Z,11.09
2023-03-16T16:39:24.650Z,10.92
2023-03-16T16:41:56.273Z,10.82
2023-03-16T16:44:27.169Z,10.89
2023-03-16T16:46:57.413Z,10.83
2023-03-16T16:49:30.501Z,10.74
2023-03-16T16:51:59.776Z,10.81
2023-03-16T16:54:30.079Z,10.71
2023-03-16T16:56:58.314Z,10.81
2023-03-16T16:59:37.679Z,10.67
2023-03-16T17:02:23.049Z,10.70
2023-03-16T17:04:50.870Z,10.49
2023-03-16T17:07:17.455Z,10.63
2023-03-16T17:09:43.911Z,10.45
2023-03-16T17:12:18.472Z,10.40
2023-03-16T17:14:45.040Z,10.35
2023-03-16T17:17:16.748Z,10.30
2023-03-16T17:19:49.114Z,10.36
2023-03-16T17:22:19.973Z,10.39
2023-03-16T17:24:46.563Z,10.11
2023-03-16T17:27:16.586Z,10.18
2023-03-16T17:29:43.143Z,9.97
2023-03-16T17:32:19.879Z,9.82
2023-03-16T17:34:46.344Z,9.84
2023-03-16T17:37:16.708Z,9.83
2023-03-16T17:39:43.284Z,9.86
2023-03-16T17:42:22.877Z,9.81
2023-03-16T17:44:52.189Z,9.79
2023-03-16T17:47:23.903Z,9.73
2023-03-16T17:49:52.897Z,9.72
2023-03-16T17:52:23.478Z,9.79
2023-03-16T17:54:51.987Z,9.71
2023-03-16T17:57:24.373Z,9.74
2023-03-16T17:59:51.301Z,9.65
2023-03-16T18:02:39.908Z,9.88
2023-03-16T18:05:15.683Z,9.66
2023-03-16T18:07:44.690Z,9.66
2023-03-16T18:10:15.974Z,9.62
2023-03-16T18:12:45.938Z,9.57
2023-03-16T18:15:18.930Z,9.69
2023-03-16T18:17:46.141Z,9.60
2023-03-16T18:20:34.680Z,9.47
2023-03-16T18:23:13.855Z,9.48
2023-03-16T18:25:40.720Z,9.58
2023-03-16T18:28:10.753Z,9.50
2023-03-16T18:30:39.528Z,9.54
2023-03-16T18:33:10.404Z,9.54
2023-03-16T18:35:38.432Z,9.58
2023-03-16T18:38:16.818Z,9.53
2023-03-16T18:40:43.276Z,9.45
2023-03-16T18:43:15.179Z,9.36
2023-03-16T18:45:41.585Z,9.32
2023-03-16T18:48:17.227Z,9.19
2023-03-16T18:50:43.901Z,9.11
2023-03-16T18:53:15.744Z,9.24
2023-03-16T18:55:45.220Z,9.23
2023-03-16T18:58:22.671Z,9.25
2023-03-16T19:00:57.801Z,9.24
2023-03-16T19:03:28.195Z,9.13
2023-03-16T19:05:56.990Z,9.13
2023-03-16T19:08:25.105Z,9.07
2023-03-16T19:10:56.269Z,9.34
2023-03-16T19:13:24.760Z,9.44
2023-03-16T19:15:53.112Z,9.47
2023-03-16T19:18:20.035Z,9.46
2023-03-16T19:20:50.941Z,9.53
2023-03-16T19:23:23.600Z,9.50
2023-03-16T19:25:54.337Z,9.25
2023-03-16T19:28:39.415Z,9.35
2023-03-16T19:31:11.827Z,9.20
2023-03-16T19:33:38.837Z,8.88
2023-03-16T19:36:07.264Z,9.12
2023-03-16T19:38:33.808Z,9.01
2023-03-16T19:41:00.552Z,9.06
2023-03-16T19:43:28.462Z,9.11
2023-03-16T19:45:56.443Z,9.17
2023-03-16T19:48:32.904Z,9.03
2023-03-16T19:50:59.773Z,8.98
2023-03-16T19:53:26.378Z,9.28
2023-03-16T19:55:55.560Z,9.11
2023-03-16T19:58:38.599Z,9.06
2023-03-16T20:01:06.578Z,9.16
2023-03-16T20:03:36.401Z,9.02
2023-03-16T20:06:03.401Z,9.28
2023-03-16T20:08:30.205Z,9.33
2023-03-16T20:11:02.086Z,9.13
2023-03-16T20:13:31.361Z,9.51
2023-03-16T20:16:03.338Z,9.18
2023-03-16T20:18:30.009Z,9.08
2023-03-16T20:20:56.440Z,9.17
2023-03-16T20:23:28.263Z,9.08
2023-03-16T20:26:02.046Z,9.02
2023-03-16T20:28:36.921Z,9.29
2023-03-16T20:31:07.912Z,9.22
2023-03-16T20:33:34.528Z,9.15
2023-03-16T20:36:01.188Z,8.98
2023-03-16T20:38:27.778Z,8.77
2023-03-16T20:40:54.774Z,8.80
2023-03-16T20:43:32.755Z,8.81
2023-03-16T20:46:01.426Z,8.68
2023-03-16T20:48:30.816Z,8.71
2023-03-16T20:50:59.990Z,8.89
2023-03-16T20:53:29.083Z,8.88
2023-03-16T20:55:56.503Z,9.03
2023-03-16T20:58:25.912Z,8.96
2023-03-16T21:00:57.787Z,8.75
2023-03-16T21:03:27.671Z,8.79
2023-03-16T21:05:58.432Z,8.82
2023-03-16T21:08:26.248Z,8.87
2023-03-16T21:10:54.101Z,8.74
2023-03-16T21:13:32.407Z,8.86
2023-03-16T21:16:01.685Z,8.86
2023-03-16T21:18:33.086Z,8.90
2023-03-16T21:20:59.587Z,8.86
2023-03-16T21:23:28.419Z,8.89
2023-03-16T21:25:58.107Z,8.92
2023-03-16T21:28:27.657Z,8.79
2023-03-16T21:30:57.262Z,8.83
2023-03-16T21:33:38.726Z,8.93
2023-03-16T21:36:08.227Z,8.75
2023-03-16T21:38:34.664Z,8.74
2023-03-16T21:41:01.060Z,8.78
2023-03-16T21:43:27.928Z,8.76
2023-03-16T21:45:55.293Z,8.68
2023-03-16T21:48:24.776Z,8.75
2023-03-16T21:50:54.493Z,8.74
2023-03-16T21:53:33.364Z,8.78
2023-03-16T21:56:00.240Z,8.78
2023-03-16T21:58:27.317Z,8.76
2023-03-16T22:00:55.529Z,8.70
2023-03-16T22:03:49.655Z,8.68
2023-03-16T22:06:17.015Z,8.78
2023-03-16T22:08:43.960Z,8.81
2023-03-16T22:11:16.877Z,8.93
2023-03-16T22:13:46.436Z,8.78
2023-03-16T22:16:16.102Z,8.85
2023-03-16T22:18:44.536Z,8.75
2023-03-16T22:21:33.200Z,8.84
2023-03-16T22:24:00.077Z,8.82
2023-03-16T22:26:28.570Z,8.71
2023-03-16T22:28:56.238Z,8.73
2023-03-16T22:31:41.265Z,8.66
2023-03-16T22:34:24.720Z,8.65
2023-03-16T22:36:51.289Z,8.63
2023-03-16T22:39:20.215Z,8.57
2023-03-16T22:41:46.661Z,8.72
2023-03-16T22:44:24.826Z,8.73
2023-03-16T22:46:54.101Z,8.67
2023-03-16T22:49:24.588Z,8.56
2023-03-16T22:51:53.240Z,8.64
2023-03-16T22:54:22.136Z,8.69
2023-03-16T22:56:48.647Z,8.66
2023-03-16T22:59:18.829Z,8.70
2023-03-16T23:01:48.562Z,8.81
2023-03-16T23:04:20.924Z,8.73
2023-03-16T23:06:48.667Z,8.78
2023-03-16T23:09:20.473Z,8.95
2023-03-16T23:11:53.842Z,8.39
2023-03-16T23:14:27.293Z,8.45
2023-03-16T23:16:53.964Z,8.45
2023-03-16T23:19:32.676Z,8.34
2023-03-16T23:22:05.017Z,8.24
2023-03-16T23:24:35.093Z,8.31
2023-03-16T23:27:01.848Z,8.36
2023-03-16T23:29:28.909Z,8.24
2023-03-16T23:31:55.913Z,8.24
2023-03-16T23:34:24.897Z,8.69
2023-03-16T23:36:51.720Z,8.68
2023-03-16T23:39:19.030Z,8.69
2023-03-16T23:41:48.151Z,8.43
2023-03-16T23:44:19.888Z,8.50
2023-03-16T23:46:46.915Z,8.51
2023-03-16T23:49:24.804Z,8.57
2023-03-16T23:51:52.508Z,8.43
2023-03-16T23:54:28.326Z,8.34
2023-03-16T23:56:54.820Z,8.27
2023-03-16T23:59:23.368Z,8.58
